Time;durP1;ratioP1;P1;durP2;ratioP2;P2;SDS_P1;SDS_P2;PMS_P1;PMS_P2;Temp;Humidity;BMP_temperature;BMP_pressure;BME280_temperature;BME280_humidity;BME280_pressure;Samples;Min_cycle;Max_cycle;Signal;HPM_P1;HPM_P2
2022/09/13 00:01:25;;;;;;;4.88;1.92;;;14.40;99.90;;;;;;6334603;28;20293;-68
2022/09/13 00:04:31;;;;;;;1.73;1.60;;;14.40;99.90;;;;;;6335965;28;20289;-68
2022/09/13 00:07:38;;;;;;;4.43;2.25;;;14.40;99.90;;;;;;6339922;28;20270;-68
2022/09/13 00:10:45;;;;;;;2.13;2.00;;;14.30;99.90;;;;;;6339490;28;20298;-68
2022/09/13 00:13:51;;;;;;;1.95;1.85;;;14.30;99.90;;;;;;6308400;28;20271;-68
2022/09/13 00:16:56;;;;;;;1.70;1.70;;;14.30;99.90;;;;;;6314879;28;20451;-68
2022/09/13 00:20:02;;;;;;;3.30;2.05;;;14.30;99.90;;;;;;6313846;28;20298;-68
2022/09/13 00:23:11;;;;;;;3.90;2.15;;;14.30;99.90;;;;;;6314751;28;20350;-67
2022/09/13 00:26:20;;;;;;;1.90;1.90;;;14.30;99.90;;;;;;6314035;28;20290;-67
2022/09/13 00:29:26;;;;;;;1.98;1.88;;;14.30;99.90;;;;;;6314162;28;20297;-67
2022/09/13 00:32:31;;;;;;;2.08;2.00;;;14.30;99.90;;;;;;6314408;28;20333;-67
2022/09/13 00:35:37;;;;;;;1.88;1.75;;;14.30;99.90;;;;;;6314118;28;20314;-67
2022/09/13 00:38:44;;;;;;;1.98;1.98;;;14.30;99.90;;;;;;6313617;28;20586;-67
2022/09/13 00:41:49;;;;;;;2.20;2.10;;;14.30;99.90;;;;;;6314062;28;20275;-67
2022/09/13 00:44:58;;;;;;;2.00;2.00;;;14.30;99.90;;;;;;6313899;28;20477;-67
2022/09/13 00:48:06;;;;;;;1.83;1.83;;;14.30;99.90;;;;;;6314259;28;20274;-67
2022/09/13 00:51:12;;;;;;;1.90;1.90;;;14.30;99.90;;;;;;6313214;28;20298;-67
2022/09/13 00:54:23;;;;;;;3.13;1.92;;;14.30;99.90;;;;;;6313256;28;20298;-67
2022/09/13 00:57:29;;;;;;;1.98;1.85;;;14.30;99.90;;;;;;6314152;28;20550;-67
2022/09/13 01:00:35;;;;;;;2.72;2.10;;;14.30;99.90;;;;;;6313650;28;20298;-67
2022/09/13 01:03:43;;;;;;;2.65;1.80;;;14.30;99.90;;;;;;6313262;28;20275;-67
2022/09/13 01:06:50;;;;;;;3.90;2.33;;;14.30;99.90;;;;;;6313790;28;20270;-67
2022/09/13 01:09:57;;;;;;;3.50;1.80;;;14.30;99.90;;;;;;6312659;28;20594;-67
2022/09/13 01:13:13;;;;;;;1.80;1.77;;;14.30;99.90;;;;;;6332683;28;20299;-67
2022/09/13 01:16:19;;;;;;;2.10;2.10;;;14.30;99.90;;;;;;6338162;28;20294;-67
2022/09/13 01:19:24;;;;;;;1.92;1.92;;;14.30;99.90;;;;;;6338403;28;20297;-68
2022/09/13 01:23:22;;;;;;;1.98;1.85;;;14.30;99.90;;;;;;6338511;28;20273;-67
2022/09/13 01:27:24;;;;;;;3.03;2.08;;;14.30;99.90;;;;;;6333497;28;20293;-67
2022/09/13 01:30:34;;;;;;;5.75;2.38;;;14.30;99.90;;;;;;6307742;28;20312;-67
2022/09/13 01:33:54;;;;;;;1.85;1.75;;;14.30;99.90;;;;;;6337492;28;20273;-67
2022/09/13 01:37:38;;;;;;;1.52;1.52;;;14.30;99.90;;;;;;6338159;28;20270;-68
2022/09/13 01:40:56;;;;;;;2.00;1.90;;;14.30;99.90;;;;;;6337585;28;20309;-68
2022/09/13 01:44:11;;;;;;;2.22;2.13;;;14.30;99.90;;;;;;6337462;28;20314;-68
2022/09/13 01:47:25;;;;;;;1.88;1.80;;;14.30;99.90;;;;;;6337960;28;20448;-68
2022/09/13 01:50:39;;;;;;;2.10;2.00;;;14.30;99.90;;;;;;6337397;28;20294;-68
2022/09/13 01:53:59;;;;;;;2.13;2.03;;;14.30;99.90;;;;;;6337007;28;20291;-67
2022/09/13 01:57:10;;;;;;;1.80;1.80;;;14.30;99.90;;;;;;6337248;28;20270;-67
2022/09/13 02:00:17;;;;;;;2.05;1.80;;;14.30;99.90;;;;;;6337192;28;20564;-67
2022/09/13 02:03:28;;;;;;;1.95;1.95;;;14.30;99.90;;;;;;6337572;28;20274;-67
2022/09/13 02:06:36;;;;;;;2.17;2.17;;;14.30;99.90;;;;;;6336878;28;20297;-67
2022/09/13 02:09:44;;;;;;;2.03;2.00;;;14.30;99.90;;;;;;6336927;28;20301;-67
2022/09/13 02:12:51;;;;;;;1.80;1.80;;;14.30;99.90;;;;;;6337224;28;20290;-67
2022/09/13 02:16:02;;;;;;;2.00;1.90;;;14.30;99.90;;;;;;6336850;28;20294;-67
2022/09/13 02:19:14;;;;;;;2.03;1.88;;;14.30;99.90;;;;;;6336441;28;20294;-68
2022/09/13 02:22:27;;;;;;;2.08;1.98;;;14.40;99.90;;;;;;6336838;28;20274;-68
2022/09/13 02:25:34;;;;;;;1.88;1.80;;;14.40;99.90;;;;;;6336501;28;20594;-68
2022/09/13 02:28:46;;;;;;;3.22;1.77;;;14.40;99.90;;;;;;6335655;28;20358;-68
2022/09/13 02:31:57;;;;;;;5.50;1.92;;;14.40;99.90;;;;;;6336572;28;20285;-68
2022/09/13 02:35:09;;;;;;;2.08;1.98;;;14.30;99.90;;;;;;6335736;28;20293;-68
2022/09/13 02:38:20;;;;;;;2.00;1.90;;;14.40;99.90;;;;;;6335930;28;20266;-68
2022/09/13 02:41:34;;;;;;;2.10;2.00;;;14.40;99.90;;;;;;6335982;28;20297;-67
2022/09/13 02:44:43;;;;;;;2.25;1.90;;;14.40;99.90;;;;;;6335293;28;20293;-68
2022/09/13 02:47:56;;;;;;;1.98;1.67;;;14.40;99.90;;;;;;6336197;28;20282;-68
2022/09/13 02:51:10;;;;;;;1.90;1.90;;;14.40;99.90;;;;;;6335928;28;20294;-68
2022/09/13 02:54:24;;;;;;;2.20;2.00;;;14.50;99.90;;;;;;6335110;28;20317;-68
2022/09/13 02:57:34;;;;;;;2.28;1.98;;;14.50;99.90;;;;;;6336375;28;20269;-68
2022/09/13 03:00:39;;;;;;;1.88;1.88;;;14.50;99.90;;;;;;6331218;28;20293;-68
2022/09/13 03:03:45;;;;;;;2.38;2.17;;;14.50;99.90;;;;;;6327366;28;20302;-67
2022/09/13 03:06:52;;;;;;;2.00;2.00;;;14.60;99.90;;;;;;6334270;28;20262;-67
2022/09/13 03:10:05;;;;;;;2.17;2.08;;;14.60;99.90;;;;;;6335511;28;20486;-68
2022/09/13 03:13:45;;;;;;;1.88;1.77;;;14.60;99.90;;;;;;6334965;28;20489;-68
2022/09/13 03:17:14;;;;;;;1.95;1.85;;;14.60;99.90;;;;;;6335197;28;20277;-68
2022/09/13 03:20:29;;;;;;;2.20;2.08;;;14.60;99.90;;;;;;6335825;28;20449;-68
2022/09/13 03:23:50;;;;;;;1.92;1.80;;;14.60;99.90;;;;;;6335404;28;20303;-68
2022/09/13 03:27:09;;;;;;;1.70;1.70;;;14.60;99.90;;;;;;6334861;28;20459;-68
2022/09/13 03:30:16;;;;;;;1.90;1.90;;;14.70;99.90;;;;;;6310163;28;20271;-68
2022/09/13 03:33:31;;;;;;;1.85;1.75;;;14.70;99.90;;;;;;6310005;28;20299;-68
2022/09/13 03:36:42;;;;;;;2.25;2.08;;;14.70;99.90;;;;;;6310269;28;20266;-68
2022/09/13 03:39:53;;;;;;;2.22;2.10;;;14.70;99.90;;;;;;6312134;28;20293;-68
2022/09/13 03:43:03;;;;;;;1.98;1.90;;;14.70;99.90;;;;;;6315003;28;20314;-68
2022/09/13 03:46:12;;;;;;;2.97;2.00;;;14.80;99.90;;;;;;6315439;28;20267;-68
2022/09/13 03:49:19;;;;;;;3.33;2.10;;;14.80;99.90;;;;;;6315112;28;20294;-68
2022/09/13 03:52:25;;;;;;;1.70;1.70;;;14.80;99.90;;;;;;6314757;28;20463;-68
2022/09/13 03:55:33;;;;;;;2.50;2.30;;;14.80;99.90;;;;;;6315373;28;20266;-67
2022/09/13 03:58:38;;;;;;;4.20;2.10;;;14.90;99.90;;;;;;6315007;28;20294;-67
2022/09/13 04:01:44;;;;;;;2.25;2.13;;;14.90;99.90;;;;;;6314917;28;20460;-66
2022/09/13 04:04:50;;;;;;;2.40;2.28;;;14.90;99.90;;;;;;6314555;28;20294;-67
2022/09/13 04:07:55;;;;;;;2.50;2.35;;;15.00;99.90;;;;;;6314361;28;20375;-67
2022/09/13 04:11:02;;;;;;;2.50;2.22;;;15.00;99.90;;;;;;6313623;28;20263;-68
2022/09/13 04:14:07;;;;;;;3.17;2.42;;;15.10;99.90;;;;;;6313790;28;20486;-67
2022/09/13 04:17:14;;;;;;;6.00;2.20;;;15.10;99.90;;;;;;6313941;28;20310;-68
2022/09/13 04:20:20;;;;;;;2.17;2.08;;;15.10;99.90;;;;;;6314343;28;20289;-68
2022/09/13 04:23:27;;;;;;;2.47;2.38;;;15.10;99.90;;;;;;6313911;28;20298;-68
2022/09/13 04:26:34;;;;;;;2.42;2.25;;;15.10;99.90;;;;;;6314375;28;20270;-68
2022/09/13 04:29:40;;;;;;;2.30;2.20;;;15.10;99.90;;;;;;6313546;28;20306;-67
2022/09/13 04:32:45;;;;;;;2.28;2.17;;;15.10;99.90;;;;;;6313290;28;20291;-67
2022/09/13 04:35:57;;;;;;;5.75;2.40;;;15.20;99.90;;;;;;6313744;28;20290;-68
2022/09/13 04:39:03;;;;;;;3.83;2.60;;;15.20;99.90;;;;;;6313712;28;20299;-68
2022/09/13 04:42:11;;;;;;;2.60;2.40;;;15.20;99.90;;;;;;6313320;28;20459;-68
2022/09/13 04:45:16;;;;;;;2.30;2.20;;;15.20;99.90;;;;;;6313447;28;20274;-68
2022/09/13 04:48:22;;;;;;;2.95;2.20;;;15.30;99.90;;;;;;6313033;28;20294;-68
2022/09/13 04:51:27;;;;;;;2.40;2.30;;;15.20;99.90;;;;;;6313315;28;20578;-67
2022/09/13 04:54:33;;;;;;;2.45;2.30;;;15.30;99.90;;;;;;6313260;28;20298;-68
2022/09/13 04:57:39;;;;;;;1.95;1.95;;;15.30;99.90;;;;;;6313314;28;20289;-68
2022/09/13 05:00:45;;;;;;;3.22;2.28;;;15.40;99.90;;;;;;6313349;28;20466;-68
2022/09/13 05:03:52;;;;;;;2.50;2.40;;;15.40;99.90;;;;;;6312908;28;20295;-68
2022/09/13 05:06:57;;;;;;;2.90;2.10;;;15.40;99.90;;;;;;6313156;28;20270;-68
2022/09/13 05:10:03;;;;;;;2.55;2.33;;;15.40;99.90;;;;;;6313541;28;20262;-68
2022/09/13 05:13:12;;;;;;;1.67;1.67;;;15.40;99.90;;;;;;6312909;28;20322;-67
2022/09/13 05:16:17;;;;;;;3.80;2.33;;;15.50;99.90;;;;;;6313004;28;20286;-68
2022/09/13 05:19:23;;;;;;;2.72;1.98;;;15.50;99.90;;;;;;6312660;28;20290;-68
2022/09/13 05:22:29;;;;;;;2.40;2.30;;;15.50;99.90;;;;;;6312433;28;20561;-68
2022/09/13 05:25:34;;;;;;;2.85;2.60;;;15.50;99.90;;;;;;6313003;28;20274;-67
2022/09/13 05:28:41;;;;;;;2.45;2.35;;;15.60;99.90;;;;;;6316636;28;20498;-68
2022/09/13 05:31:47;;;;;;;1.83;1.83;;;15.50;99.90;;;;;;6337834;28;20451;-67
2022/09/13 05:34:53;;;;;;;2.10;1.98;;;15.60;99.90;;;;;;6336602;28;20293;-67
2022/09/13 05:37:58;;;;;;;3.08;2.30;;;15.60;99.90;;;;;;6337281;28;20581;-68
2022/09/13 05:41:05;;;;;;;6.07;2.20;;;15.60;99.90;;;;;;6337708;28;20549;-68
2022/09/13 05:44:14;;;;;;;11.82;2.28;;;15.60;99.90;;;;;;6336913;28;20299;-68
2022/09/13 05:47:20;;;;;;;2.00;1.90;;;15.60;99.90;;;;;;6336846;28;20285;-68
2022/09/13 05:50:25;;;;;;;1.98;1.98;;;15.60;99.90;;;;;;6337801;28;20273;-68
2022/09/13 05:53:53;;;;;;;2.50;2.30;;;15.70;99.90;;;;;;6336852;28;20293;-68
2022/09/13 05:56:59;;;;;;;3.38;2.30;;;15.70;99.90;;;;;;6336578;28;20270;-68
2022/09/13 06:00:07;;;;;;;3.15;2.20;;;15.70;99.90;;;;;;6328928;28;20480;-67
2022/09/13 06:03:17;;;;;;;2.45;2.25;;;15.70;99.90;;;;;;6333793;28;20270;-68
2022/09/13 06:06:23;;;;;;;2.55;2.45;;;15.70;99.90;;;;;;6336542;28;20478;-68
2022/09/13 06:09:29;;;;;;;3.20;2.13;;;15.70;99.90;;;;;;6335995;28;20309;-67
2022/09/13 06:12:35;;;;;;;2.40;2.20;;;15.70;99.90;;;;;;6335945;28;20273;-68
2022/09/13 06:15:42;;;;;;;2.58;2.38;;;15.70;99.90;;;;;;6336349;28;20448;-68
2022/09/13 06:18:47;;;;;;;2.88;2.65;;;15.70;99.90;;;;;;6336649;28;20456;-68
2022/09/13 06:21:53;;;;;;;2.80;2.28;;;15.80;99.90;;;;;;6336180;28;20293;-68
2022/09/13 06:24:58;;;;;;;4.25;2.47;;;15.80;99.90;;;;;;6335662;28;20302;-67
2022/09/13 06:28:04;;;;;;;4.22;2.28;;;15.80;99.90;;;;;;6331443;28;20298;-68
2022/09/13 06:31:14;;;;;;;3.10;2.15;;;15.80;99.90;;;;;;6292964;28;20367;-68
2022/09/13 06:34:20;;;;;;;9.63;2.38;;;15.80;99.90;;;;;;6310060;28;20262;-68
2022/09/13 06:37:25;;;;;;;2.47;2.38;;;15.80;99.90;;;;;;6311212;28;20294;-68
2022/09/13 06:40:31;;;;;;;3.72;2.20;;;15.70;99.90;;;;;;6310752;28;20450;-68
2022/09/13 06:43:37;;;;;;;3.88;2.30;;;15.70;99.90;;;;;;6311115;28;20270;-68
2022/09/13 06:46:44;;;;;;;2.50;2.30;;;15.70;99.90;;;;;;6310403;28;20593;-68
2022/09/13 06:49:49;;;;;;;2.83;2.42;;;15.70;99.90;;;;;;6310463;28;20594;-68
2022/09/13 06:52:56;;;;;;;2.80;2.70;;;15.70;99.90;;;;;;6310431;28;20457;-68
2022/09/13 06:56:04;;;;;;;2.42;2.25;;;15.60;99.90;;;;;;6310426;28;20294;-68
2022/09/13 06:59:11;;;;;;;2.55;2.20;;;15.60;99.90;;;;;;6309738;28;20291;-68
2022/09/13 07:02:17;;;;;;;3.05;2.50;;;15.60;99.90;;;;;;6310906;28;20274;-67
2022/09/13 07:05:23;;;;;;;2.42;2.22;;;15.60;99.90;;;;;;6310117;28;20298;-68
2022/09/13 07:08:28;;;;;;;4.75;3.20;;;15.60;99.90;;;;;;6310543;28;20267;-68
2022/09/13 07:11:36;;;;;;;2.78;2.67;;;15.70;99.90;;;;;;6309732;28;20299;-68
2022/09/13 07:14:41;;;;;;;4.22;3.08;;;15.60;99.90;;;;;;6309231;28;20610;-68
2022/09/13 07:17:48;;;;;;;4.53;2.95;;;15.50;99.90;;;;;;6310706;28;20290;-68
2022/09/13 07:21:01;;;;;;;2.97;2.85;;;15.50;99.90;;;;;;6309919;28;20294;-69
2022/09/13 07:24:07;;;;;;;4.13;3.33;;;15.50;99.90;;;;;;6310197;28;20270;-69
2022/09/13 07:27:13;;;;;;;3.28;3.08;;;15.50;99.90;;;;;;6310472;28;20270;-67
2022/09/13 07:30:19;;;;;;;3.38;2.90;;;15.50;99.90;;;;;;6333761;28;20293;-68
2022/09/13 07:33:26;;;;;;;10.00;2.60;;;15.50;99.90;;;;;;6335420;28;20265;-67
2022/09/13 07:36:36;;;;;;;4.60;2.35;;;15.50;99.90;;;;;;6334909;28;20297;-68
2022/09/13 07:39:41;;;;;;;4.80;3.00;;;15.60;99.90;;;;;;6334760;28;20301;-68
2022/09/13 07:42:47;;;;;;;2.38;2.38;;;15.50;99.90;;;;;;6335194;28;20270;-67
2022/09/13 07:45:59;;;;;;;2.45;2.30;;;15.50;99.90;;;;;;6335324;28;20302;-68
2022/09/13 07:49:07;;;;;;;3.13;2.70;;;15.50;99.90;;;;;;6335798;28;20265;-68
2022/09/13 07:52:12;;;;;;;4.43;2.63;;;15.60;99.90;;;;;;6334537;28;20269;-68
2022/09/13 07:55:17;;;;;;;2.88;2.67;;;15.60;99.90;;;;;;6334747;28;20592;-68
2022/09/13 07:58:23;;;;;;;3.97;2.83;;;15.50;99.90;;;;;;6335265;28;20281;-68
2022/09/13 08:01:30;;;;;;;2.90;2.60;;;15.50;99.90;;;;;;6334869;28;20304;-68
2022/09/13 08:04:37;;;;;;;2.67;2.40;;;15.50;99.90;;;;;;6334495;28;20294;-68
2022/09/13 08:07:42;;;;;;;3.47;2.30;;;15.40;99.90;;;;;;6334078;28;20439;-68
2022/09/13 08:10:48;;;;;;;3.47;2.40;;;15.40;99.90;;;;;;6334607;28;20293;-68
2022/09/13 08:13:54;;;;;;;4.47;2.40;;;15.40;99.90;;;;;;6334855;28;20460;-68
2022/09/13 08:17:00;;;;;;;4.30;2.90;;;15.40;99.90;;;;;;6334701;28;20297;-67
2022/09/13 08:20:08;;;;;;;2.40;2.30;;;15.40;99.90;;;;;;6334814;28;20455;-67
2022/09/13 08:23:15;;;;;;;3.03;2.00;;;15.40;99.90;;;;;;6334644;28;20270;-67
2022/09/13 08:26:21;;;;;;;2.33;2.17;;;15.40;99.90;;;;;;6337508;28;20327;-67
2022/09/13 08:29:26;;;;;;;2.10;2.00;;;15.40;99.90;;;;;;6339338;28;20305;-68
2022/09/13 08:32:32;;;;;;;2.72;2.13;;;15.40;99.90;;;;;;6339617;28;20269;-68
2022/09/13 08:35:39;;;;;;;5.20;2.38;;;15.40;99.90;;;;;;6338825;28;20305;-68
2022/09/13 08:38:47;;;;;;;3.72;2.42;;;15.30;99.90;;;;;;6339067;28;20317;-68
2022/09/13 08:42:11;;;;;;;3.42;2.92;;;15.30;99.90;;;;;;6338715;28;20294;-68
2022/09/13 08:45:17;;;;;;;4.35;2.58;;;15.40;99.90;;;;;;6338648;28;20293;-67
2022/09/13 08:48:26;;;;;;;2.60;2.38;;;15.30;99.90;;;;;;6339164;28;20461;-67
2022/09/13 08:51:37;;;;;;;4.05;2.38;;;15.40;99.90;;;;;;6338555;28;20292;-68
2022/09/13 08:54:43;;;;;;;4.43;2.20;;;15.40;99.90;;;;;;6338339;28;20297;-67
2022/09/13 08:57:55;;;;;;;1.80;1.80;;;15.30;99.90;;;;;;6338865;28;20294;-68
2022/09/13 09:01:06;;;;;;;2.15;2.00;;;15.20;99.90;;;;;;6338009;28;20304;-68
2022/09/13 09:04:27;;;;;;;3.80;1.92;;;15.20;99.90;;;;;;6337824;28;20270;-68
2022/09/13 09:07:42;;;;;;;1.90;1.80;;;15.20;99.90;;;;;;6338122;28;20265;-68
2022/09/13 09:10:51;;;;;;;2.00;1.80;;;15.20;99.90;;;;;;6338232;28;20298;-68
2022/09/13 09:14:05;;;;;;;3.10;2.03;;;15.20;99.90;;;;;;6338065;28;20565;-68
2022/09/13 09:17:16;;;;;;;3.80;1.80;;;15.20;99.90;;;;;;6337482;28;20289;-68
2022/09/13 09:20:31;;;;;;;1.83;1.73;;;15.20;99.90;;;;;;6337448;28;20472;-68
2022/09/13 09:23:41;;;;;;;1.73;1.63;;;15.20;99.90;;;;;;6338556;28;20270;-68
2022/09/13 09:26:46;;;;;;;1.63;1.52;;;15.10;99.90;;;;;;6328782;28;20290;-68
2022/09/13 09:29:56;;;;;;;2.10;2.00;;;15.00;99.90;;;;;;6318065;28;20466;-68
2022/09/13 09:33:32;;;;;;;3.33;1.90;;;15.10;99.90;;;;;;6312650;28;20275;-67
2022/09/13 09:36:42;;;;;;;4.03;1.88;;;15.20;99.90;;;;;;6312297;28;20295;-67
2022/09/13 09:39:49;;;;;;;2.95;1.85;;;15.10;99.90;;;;;;6311883;28;20302;-67
2022/09/13 09:42:55;;;;;;;2.60;1.80;;;15.10;99.90;;;;;;6312804;28;20570;-67
2022/09/13 09:46:03;;;;;;;2.65;2.33;;;15.10;99.90;;;;;;6312196;28;20294;-67
2022/09/13 09:52:49;;;;;;;4.63;2.30;;;15.20;99.90;;;;;;6312539;28;20267;-67
2022/09/13 09:56:01;;;;;;;5.03;2.10;;;15.30;99.90;;;;;;6311818;28;20294;-68
2022/09/13 09:59:27;;;;;;;3.40;2.13;;;15.30;99.90;;;;;;6311211;28;20289;-68
2022/09/13 10:02:33;;;;;;;2.90;2.40;;;15.30;99.90;;;;;;6311842;28;20275;-68
2022/09/13 10:05:38;;;;;;;5.13;2.42;;;15.30;99.90;;;;;;6311547;28;20294;-68
2022/09/13 10:08:53;;;;;;;3.15;2.30;;;15.40;99.90;;;;;;6311462;28;20275;-68
2022/09/13 10:12:00;;;;;;;3.10;2.22;;;15.40;99.90;;;;;;6311572;28;20314;-68
2022/09/13 10:15:16;;;;;;;2.08;1.98;;;15.50;99.90;;;;;;6311344;28;20472;-68
2022/09/13 10:18:23;;;;;;;3.83;2.08;;;15.50;99.90;;;;;;6311541;28;20295;-68
2022/09/13 10:22:01;;;;;;;2.70;1.80;;;15.60;99.90;;;;;;6311150;28;20314;-68
2022/09/13 10:25:23;;;;;;;2.53;2.20;;;15.70;99.90;;;;;;6311174;28;20585;-68
2022/09/13 10:28:31;;;;;;;3.22;1.92;;;15.70;99.90;;;;;;6319203;28;20302;-68
2022/09/13 10:31:38;;;;;;;2.67;2.10;;;15.80;99.90;;;;;;6335748;28;20310;-68
2022/09/13 10:34:46;;;;;;;3.05;2.05;;;15.70;99.90;;;;;;6318299;28;20290;-68
2022/09/13 10:37:53;;;;;;;2.28;2.17;;;15.70;99.90;;;;;;6336453;28;20205;-68
2022/09/13 10:41:01;;;;;;;1.83;1.73;;;15.60;99.90;;;;;;6336007;28;20297;-67
2022/09/13 10:44:26;;;;;;;2.45;2.35;;;15.60;99.90;;;;;;6335949;28;20573;-68
2022/09/13 10:47:35;;;;;;;5.03;2.63;;;15.60;99.90;;;;;;6335709;28;20269;-68
2022/09/13 10:50:40;;;;;;;2.97;2.58;;;15.60;99.90;;;;;;6335511;28;20297;-68
2022/09/13 10:53:46;;;;;;;5.03;2.53;;;15.80;99.90;;;;;;6336133;28;20353;-68
2022/09/13 10:56:51;;;;;;;2.25;2.22;;;15.90;99.90;;;;;;6335721;28;20293;-68
2022/09/13 10:59:59;;;;;;;2.50;2.28;;;16.00;99.90;;;;;;6335976;28;20298;-68
2022/09/13 11:03:24;;;;;;;2.38;2.15;;;16.00;99.90;;;;;;6335577;28;20269;-68
2022/09/13 11:06:35;;;;;;;5.63;2.65;;;16.10;99.90;;;;;;6335108;28;20604;-68
2022/09/13 11:09:47;;;;;;;2.42;1.95;;;16.10;99.90;;;;;;6335574;28;20293;-68
2022/09/13 11:13:01;;;;;;;2.13;2.03;;;16.10;99.90;;;;;;6335868;28;20270;-68
2022/09/13 11:16:27;;;;;;;2.83;2.05;;;16.10;99.90;;;;;;6335196;28;20294;-68
2022/09/13 11:20:10;;;;;;;3.70;1.92;;;16.10;99.90;;;;;;6334874;28;20298;-68
2022/09/13 11:23:49;;;;;;;2.38;2.17;;;16.20;99.90;;;;;;6334182;28;20269;-68
2022/09/13 11:27:02;;;;;;;4.97;2.10;;;16.10;99.90;;;;;;6335227;28;20293;-68
2022/09/13 11:30:16;;;;;;;3.40;2.25;;;16.10;99.90;;;;;;6313098;28;20306;-68
2022/09/13 11:33:40;;;;;;;3.17;2.20;;;16.10;99.90;;;;;;6310157;28;20270;-67
2022/09/13 11:37:02;;;;;;;2.20;2.05;;;16.10;99.90;;;;;;6309335;28;20298;-67
2022/09/13 11:40:32;;;;;;;2.28;2.03;;;16.10;99.90;;;;;;6309678;28;20298;-67
2022/09/13 11:43:55;;;;;;;2.60;2.03;;;16.30;99.90;;;;;;6310012;28;20278;-67
2022/09/13 11:47:08;;;;;;;3.92;2.58;;;16.40;99.90;;;;;;6309933;28;20294;-68
2022/09/13 11:50:27;;;;;;;2.60;2.40;;;16.40;99.90;;;;;;6309421;28;20303;-68
2022/09/13 11:53:58;;;;;;;3.03;2.05;;;16.40;99.90;;;;;;6309952;28;20267;-68
2022/09/13 11:57:08;;;;;;;3.00;2.00;;;16.40;99.90;;;;;;6309933;28;20515;-69
2022/09/13 12:00:22;;;;;;;2.22;2.10;;;16.30;99.90;;;;;;6310544;28;20298;-67
2022/09/13 12:03:33;;;;;;;2.03;1.92;;;16.30;99.90;;;;;;6315129;28;20270;-68
2022/09/13 12:06:42;;;;;;;2.45;2.25;;;16.20;99.90;;;;;;6314702;28;20296;-68
2022/09/13 12:09:57;;;;;;;2.30;2.20;;;16.20;99.90;;;;;;6314389;28;20294;-68
2022/09/13 12:13:04;;;;;;;3.25;2.15;;;16.10;99.90;;;;;;6314550;28;20271;-68
2022/09/13 12:16:15;;;;;;;2.60;2.20;;;16.10;99.90;;;;;;6313545;28;20298;-68
2022/09/13 12:19:24;;;;;;;2.67;2.47;;;15.90;99.90;;;;;;6313963;28;20295;-68
2022/09/13 12:22:34;;;;;;;3.15;2.40;;;15.90;99.90;;;;;;6313904;28;20271;-68
2022/09/13 12:25:46;;;;;;;2.85;2.42;;;15.90;99.90;;;;;;6314056;28;20302;-68
2022/09/13 12:28:55;;;;;;;3.58;2.90;;;15.80;99.90;;;;;;6325301;28;20297;-68
2022/09/13 12:32:05;;;;;;;3.20;2.75;;;15.80;99.90;;;;;;6338956;28;20302;-67
2022/09/13 12:35:20;;;;;;;4.40;2.80;;;15.70;99.90;;;;;;6339008;28;20298;-68
2022/09/13 12:38:57;;;;;;;4.85;2.58;;;15.70;99.90;;;;;;6339394;28;20266;-68
2022/09/13 12:42:44;;;;;;;2.83;2.67;;;15.70;99.90;;;;;;6338959;28;20301;-68
2022/09/13 12:46:09;;;;;;;3.17;2.97;;;15.70;99.90;;;;;;6338367;28;20294;-67
2022/09/13 12:49:28;;;;;;;2.97;2.90;;;15.70;99.90;;;;;;6338593;28;20266;-67
2022/09/13 12:52:41;;;;;;;4.80;2.78;;;15.60;99.90;;;;;;6338843;28;20346;-67
2022/09/13 12:56:02;;;;;;;8.00;2.90;;;15.60;99.90;;;;;;6338341;28;20633;-67
2022/09/13 12:59:56;;;;;;;2.80;2.60;;;15.60;99.90;;;;;;6338230;28;20545;-68
2022/09/13 13:03:10;;;;;;;2.95;2.30;;;15.60;99.90;;;;;;6338197;28;20269;-67
2022/09/13 13:06:28;;;;;;;2.97;2.65;;;15.60;99.90;;;;;;6337956;28;20293;-67
2022/09/13 13:09:41;;;;;;;4.90;2.55;;;15.60;99.90;;;;;;6312225;28;20310;-68
2022/09/13 13:12:47;;;;;;;5.32;2.70;;;15.60;99.90;;;;;;6313111;28;20462;-67
2022/09/13 13:16:24;;;;;;;3.58;2.55;;;15.50;99.90;;;;;;6313057;28;20294;-67
2022/09/13 13:19:32;;;;;;;2.67;2.55;;;15.50;99.90;;;;;;6312740;28;20298;-67
2022/09/13 13:22:51;;;;;;;2.78;2.60;;;15.50;99.90;;;;;;6313074;28;20472;-67
2022/09/13 13:26:44;;;;;;;4.88;2.58;;;15.40;99.90;;;;;;6312827;28;20566;-67
2022/09/13 13:30:41;;;;;;;3.30;2.60;;;15.40;99.90;;;;;;6313212;28;20290;-66
2022/09/13 13:33:49;;;;;;;4.38;2.50;;;15.40;99.90;;;;;;6312940;28;20430;-67
2022/09/13 13:37:02;;;;;;;2.92;2.65;;;15.40;99.90;;;;;;6312743;28;20294;-67
2022/09/13 13:40:27;;;;;;;4.57;3.13;;;15.30;99.90;;;;;;6312542;28;20302;-67
2022/09/13 13:43:34;;;;;;;7.30;3.90;;;15.40;99.90;;;;;;6312674;28;20271;-67
2022/09/13 13:46:41;;;;;;;3.13;2.92;;;15.50;99.90;;;;;;6312282;28;20294;-66
2022/09/13 13:49:52;;;;;;;6.03;3.10;;;15.40;99.90;;;;;;6312319;28;20286;-66
2022/09/13 13:53:05;;;;;;;3.47;2.70;;;15.60;99.90;;;;;;6312701;28;20279;-67
2022/09/13 13:56:31;;;;;;;3.22;2.28;;;15.70;99.90;;;;;;6312301;28;20298;-67
2022/09/13 13:59:37;;;;;;;3.10;2.20;;;15.90;99.90;;;;;;6312163;28;20286;-68
2022/09/13 14:02:52;;;;;;;2.42;1.90;;;16.00;99.90;;;;;;6312398;28;20290;-68
2022/09/13 14:06:09;;;;;;;2.67;2.22;;;16.20;99.90;;;;;;6311787;28;20290;-68
2022/09/13 14:09:29;;;;;;;2.30;2.10;;;16.30;99.90;;;;;;6334911;28;20266;-68
2022/09/13 14:13:04;;;;;;;2.50;2.30;;;16.30;99.90;;;;;;6337125;28;20275;-68
2022/09/13 14:16:24;;;;;;;2.47;2.38;;;16.40;99.90;;;;;;6336646;28;20294;-68
2022/09/13 14:19:42;;;;;;;3.88;2.40;;;16.40;99.90;;;;;;6337044;28;20290;-68
2022/09/13 14:22:48;;;;;;;4.75;2.90;;;16.30;99.90;;;;;;6336485;28;20293;-68
2022/09/13 14:25:59;;;;;;;4.65;2.60;;;16.30;99.90;;;;;;6336398;28;20305;-68
2022/09/13 14:29:08;;;;;;;2.90;2.60;;;16.30;99.90;;;;;;6336356;28;20293;-68
2022/09/13 14:32:20;;;;;;;5.78;2.65;;;16.20;99.90;;;;;;6335765;28;20277;-68
2022/09/13 14:35:31;;;;;;;3.13;2.80;;;16.30;99.90;;;;;;6336474;28;20298;-67
2022/09/13 14:38:37;;;;;;;3.67;2.85;;;16.40;99.90;;;;;;6336600;28;20270;-67
2022/09/13 14:41:42;;;;;;;5.55;1.98;;;16.30;99.90;;;;;;6336154;28;20297;-67
2022/09/13 14:44:48;;;;;;;4.43;2.03;;;16.30;99.90;;;;;;6336090;28;20310;-67
2022/09/13 14:47:57;;;;;;;3.05;2.30;;;16.30;99.90;;;;;;6336430;28;20278;-68
2022/09/13 14:51:12;;;;;;;1.92;1.83;;;16.40;99.90;;;;;;6335642;28;20298;-67
2022/09/13 14:54:21;;;;;;;4.57;2.25;;;16.50;99.90;;;;;;6335777;28;20641;-68
2022/09/13 14:57:32;;;;;;;5.70;2.38;;;16.50;99.90;;;;;;6336296;28;20271;-67
2022/09/13 15:00:52;;;;;;;3.92;2.40;;;16.50;99.90;;;;;;6335342;28;20285;-67
2022/09/13 15:03:59;;;;;;;2.92;2.63;;;16.50;99.90;;;;;;6336471;28;20645;-67
2022/09/13 15:07:21;;;;;;;3.38;2.60;;;16.60;99.90;;;;;;6335741;28;20293;-67
2022/09/13 15:10:29;;;;;;;2.35;2.08;;;16.60;99.90;;;;;;6335759;28;20322;-67
2022/09/13 15:13:36;;;;;;;2.85;1.73;;;16.60;99.90;;;;;;6335986;28;20274;-68
2022/09/13 15:16:48;;;;;;;2.58;1.38;;;16.60;99.90;;;;;;6335285;28;20294;-67
2022/09/13 15:20:12;;;;;;;2.22;2.05;;;16.60;99.90;;;;;;6335552;28;20294;-67
2022/09/13 15:23:23;;;;;;;6.72;1.90;;;16.60;99.90;;;;;;6335360;28;20289;-67
2022/09/13 15:26:29;;;;;;;1.83;1.73;;;16.60;99.90;;;;;;6335256;28;20294;-68
2022/09/13 15:29:36;;;;;;;1.77;1.77;;;16.60;99.90;;;;;;6334945;28;20297;-68
2022/09/13 15:32:44;;;;;;;2.47;1.65;;;16.60;99.90;;;;;;6335261;28;20538;-68
2022/09/13 15:35:49;;;;;;;1.52;1.50;;;16.50;99.90;;;;;;6341689;28;20293;-68
2022/09/13 15:39:16;;;;;;;2.70;2.10;;;16.60;99.90;;;;;;6343916;28;20266;-68
2022/09/13 15:42:22;;;;;;;2.03;1.88;;;16.60;99.90;;;;;;6325064;28;20289;-68
2022/09/13 15:45:27;;;;;;;2.47;2.30;;;16.60;99.90;;;;;;6343285;28;20297;-70
2022/09/13 15:48:35;;;;;;;1.80;1.70;;;16.60;99.90;;;;;;6343740;28;20289;-69
2022/09/13 15:51:43;;;;;;;2.65;1.70;;;16.60;99.90;;;;;;6343676;28;20613;-68
2022/09/13 15:54:51;;;;;;;2.05;1.95;;;16.60;99.90;;;;;;6343658;28;20290;-68
2022/09/13 15:57:56;;;;;;;1.73;1.45;;;16.70;99.90;;;;;;6344084;28;20269;-67
2022/09/13 16:01:02;;;;;;;1.88;1.77;;;16.60;99.90;;;;;;6343177;28;20289;-67
2022/09/13 16:04:08;;;;;;;1.70;1.60;;;16.60;99.90;;;;;;6343073;28;20293;-67
2022/09/13 16:07:13;;;;;;;1.40;1.40;;;16.60;99.90;;;;;;6342655;28;20261;-67
2022/09/13 16:10:22;;;;;;;1.45;1.40;;;16.60;99.90;;;;;;6343311;28;20294;-67
2022/09/13 16:13:27;;;;;;;1.88;1.67;;;16.50;99.90;;;;;;6343461;28;20273;-67
2022/09/13 16:16:33;;;;;;;2.17;1.90;;;16.50;99.90;;;;;;6342951;28;20298;-68
2022/09/13 16:19:44;;;;;;;3.70;1.92;;;16.40;99.90;;;;;;6342945;28;20289;-67
2022/09/13 16:22:49;;;;;;;2.00;1.90;;;16.40;99.90;;;;;;6343400;28;20586;-68
2022/09/13 16:25:58;;;;;;;2.28;2.00;;;16.40;99.90;;;;;;6342905;28;20294;-68
2022/09/13 16:29:03;;;;;;;1.80;1.80;;;16.30;99.90;;;;;;6330200;28;20299;-67
2022/09/13 16:32:11;;;;;;;1.85;1.73;;;16.20;99.90;;;;;;6317085;28;20274;-68
2022/09/13 16:35:17;;;;;;;3.53;2.00;;;16.30;99.90;;;;;;6317516;28;20290;-68
2022/09/13 16:38:22;;;;;;;2.75;2.25;;;16.30;99.90;;;;;;6317814;28;20270;-68
2022/09/13 16:41:29;;;;;;;1.60;1.60;;;16.20;99.90;;;;;;6317443;28;20298;-68